Terminal Aerodrome Forecast
Issued by NWS

Home | Current Version | Previous Version | Text Only | Print | Product List | Glossary Off
Versions: 1 2 3 4 5 6 7 8 9 10 11 12 13

000
FTUS43 KOAX 231139
TAFCDR
TAF
KCDR 231139Z 2312/2412 VRB05KT P6SM BKN250
     FM240000 18010KT P6SM VCTS BKN100CB
     FM240300 17017G25KT P6SM VCSH SCT100=

USA.gov is the U.S. government's official web portal to all federal, state and local government web resources and services.